aviador You're here:

CYUS Decoded Metar

SHEPHERD BAY in NU, CANADA
Report Time2017-08-19 11:00:00
UTC Time2017-08-19 11:15:18
Flight Rules lifr LIFR
Wind090° at 10 kt
W.Rank090° ranks 22
Current wind is above 090° avg. (9.4)
Visibility0 m
Phenomena:N/A
Clouds:N/A
Expected CloudBase > 2,000 ft AGL from Temp-Dew spread
CeilingNone
Temp06°C (ISA -9)
Dew Point01°C (71% RH)
AAT0.6°C
QNH1010 hPa
Density Alt-722 ft
Elevation138 ft
Report Wrong Elevation
Raw Report
CYUS 191100Z AUTO 09010KT ////SM //// NCD 06/01 A2984=

Extra information for CYUS:More info

Metar Taf Metar & Taf Last 4 Metars F.Rules Stats Wind Profile Meteogram Temp Stats Airport Information Weather charts Add Link Nearby VenuesMetar ALERT Operation Metar Decoded Social comments